sensor_id;sensor_type;location;lat;lon;timestamp;temperature;humidity
68189;DHT22;66299;47.514;19.218;2024-01-07T00:00:33;6.24;99.99
68189;DHT22;66299;47.514;19.218;2024-01-07T00:03:02;6.29;99.99
68189;DHT22;66299;47.514;19.218;2024-01-07T00:05:31;6.28;99.99
68189;DHT22;66299;47.514;19.218;2024-01-07T00:08:00;6.24;99.99
68189;DHT22;66299;47.514;19.218;2024-01-07T00:10:30;6.24;99.99
68189;DHT22;66299;47.514;19.218;2024-01-07T00:12:59;6.22;99.99
68189;DHT22;66299;47.514;19.218;2024-01-07T00:15:28;6.28;99.99
68189;DHT22;66299;47.514;19.218;2024-01-07T00:17:58;6.22;99.99
68189;DHT22;66299;47.514;19.218;2024-01-07T00:20:27;6.25;99.99
68189;DHT22;66299;47.514;19.218;2024-01-07T00:22:56;6.25;99.99
68189;DHT22;66299;47.514;19.218;2024-01-07T00:25:26;6.22;99.99
68189;DHT22;66299;47.514;19.218;2024-01-07T00:27:54;6.25;99.99
68189;DHT22;66299;47.514;19.218;2024-01-07T00:30:25;6.25;99.99
68189;DHT22;66299;47.514;19.218;2024-01-07T00:32:55;6.24;99.99
68189;DHT22;66299;47.514;19.218;2024-01-07T00:35:26;6.25;99.99
68189;DHT22;66299;47.514;19.218;2024-01-07T00:37:55;6.24;99.99
68189;DHT22;66299;47.514;19.218;2024-01-07T00:40:24;6.25;99.99
68189;DHT22;66299;47.514;19.218;2024-01-07T00:42:53;6.25;99.99
68189;DHT22;66299;47.514;19.218;2024-01-07T00:45:22;6.21;99.99
68189;DHT22;66299;47.514;19.218;2024-01-07T00:47:51;6.24;99.99
68189;DHT22;66299;47.514;19.218;2024-01-07T00:50:21;6.22;99.99
68189;DHT22;66299;47.514;19.218;2024-01-07T00:52:53;6.22;99.99
68189;DHT22;66299;47.514;19.218;2024-01-07T00:55:23;6.22;99.99
68189;DHT22;66299;47.514;19.218;2024-01-07T00:57:53;6.24;99.99
68189;DHT22;66299;47.514;19.218;2024-01-07T01:00:23;6.25;99.99
68189;DHT22;66299;47.514;19.218;2024-01-07T01:02:52;6.25;99.99
68189;DHT22;66299;47.514;19.218;2024-01-07T01:05:21;6.25;99.99
68189;DHT22;66299;47.514;19.218;2024-01-07T01:07:52;6.22;99.99
68189;DHT22;66299;47.514;19.218;2024-01-07T01:10:22;6.22;99.99
68189;DHT22;66299;47.514;19.218;2024-01-07T01:12:52;6.27;99.99
68189;DHT22;66299;47.514;19.218;2024-01-07T01:15:21;6.24;99.99
68189;DHT22;66299;47.514;19.218;2024-01-07T01:17:50;6.24;99.99
68189;DHT22;66299;47.514;19.218;2024-01-07T01:20:20;6.24;99.99
68189;DHT22;66299;47.514;19.218;2024-01-07T01:22:48;6.24;99.99
68189;DHT22;66299;47.514;19.218;2024-01-07T01:25:19;6.22;99.99
68189;DHT22;66299;47.514;19.218;2024-01-07T01:27:47;6.29;99.99
68189;DHT22;66299;47.514;19.218;2024-01-07T01:30:17;6.25;99.99
68189;DHT22;66299;47.514;19.218;2024-01-07T01:32:46;6.27;99.99
68189;DHT22;66299;47.514;19.218;2024-01-07T01:35:18;6.25;99.99
68189;DHT22;66299;47.514;19.218;2024-01-07T01:37:47;6.25;99.99
68189;DHT22;66299;47.514;19.218;2024-01-07T01:40:16;6.27;99.99
68189;DHT22;66299;47.514;19.218;2024-01-07T01:42:46;6.28;99.99
68189;DHT22;66299;47.514;19.218;2024-01-07T01:45:15;6.28;99.99
68189;DHT22;66299;47.514;19.218;2024-01-07T01:47:46;6.27;99.99
68189;DHT22;66299;47.514;19.218;2024-01-07T01:50:17;6.25;99.99
68189;DHT22;66299;47.514;19.218;2024-01-07T01:52:48;6.29;99.99
68189;DHT22;66299;47.514;19.218;2024-01-07T01:55:18;6.31;99.99
68189;DHT22;66299;47.514;19.218;2024-01-07T01:57:51;6.32;99.99
68189;DHT22;66299;47.514;19.218;2024-01-07T02:00:21;6.34;99.99
68189;DHT22;66299;47.514;19.218;2024-01-07T02:02:50;6.36;99.99
68189;DHT22;66299;47.514;19.218;2024-01-07T02:05:19;6.35;99.99
68189;DHT22;66299;47.514;19.218;2024-01-07T02:07:49;6.34;99.99
68189;DHT22;66299;47.514;19.218;2024-01-07T02:10:19;6.36;99.99
68189;DHT22;66299;47.514;19.218;2024-01-07T02:12:50;6.35;99.99
68189;DHT22;66299;47.514;19.218;2024-01-07T02:15:21;6.31;99.99
68189;DHT22;66299;47.514;19.218;2024-01-07T02:17:50;6.32;99.99
68189;DHT22;66299;47.514;19.218;2024-01-07T02:20:21;6.38;99.99
68189;DHT22;66299;47.514;19.218;2024-01-07T02:22:49;6.36;99.99
68189;DHT22;66299;47.514;19.218;2024-01-07T02:25:21;6.38;99.99
68189;DHT22;66299;47.514;19.218;2024-01-07T02:27:50;6.41;99.99
68189;DHT22;66299;47.514;19.218;2024-01-07T02:30:19;6.39;99.99
68189;DHT22;66299;47.514;19.218;2024-01-07T02:32:48;6.36;99.99
68189;DHT22;66299;47.514;19.218;2024-01-07T02:35:16;6.41;99.99
68189;DHT22;66299;47.514;19.218;2024-01-07T02:37:45;6.38;99.99
68189;DHT22;66299;47.514;19.218;2024-01-07T02:40:14;6.38;99.99
68189;DHT22;66299;47.514;19.218;2024-01-07T02:42:45;6.41;99.99
68189;DHT22;66299;47.514;19.218;2024-01-07T02:45:14;6.41;99.99
68189;DHT22;66299;47.514;19.218;2024-01-07T02:47:44;6.39;99.99
68189;DHT22;66299;47.514;19.218;2024-01-07T02:50:15;6.36;99.99
68189;DHT22;66299;47.514;19.218;2024-01-07T02:52:44;6.38;99.99
68189;DHT22;66299;47.514;19.218;2024-01-07T02:55:14;6.38;99.99
68189;DHT22;66299;47.514;19.218;2024-01-07T02:57:45;6.38;99.99
68189;DHT22;66299;47.514;19.218;2024-01-07T03:00:16;6.39;99.99
68189;DHT22;66299;47.514;19.218;2024-01-07T03:02:45;6.38;99.99
68189;DHT22;66299;47.514;19.218;2024-01-07T03:05:14;6.44;99.99
68189;DHT22;66299;47.514;19.218;2024-01-07T03:07:43;6.38;99.99
68189;DHT22;66299;47.514;19.218;2024-01-07T03:10:11;6.42;99.99
68189;DHT22;66299;47.514;19.218;2024-01-07T03:12:42;6.44;99.99
68189;DHT22;66299;47.514;19.218;2024-01-07T03:15:13;6.44;99.99
68189;DHT22;66299;47.514;19.218;2024-01-07T03:17:43;6.49;99.99
68189;DHT22;66299;47.514;19.218;2024-01-07T03:20:12;6.48;99.99
68189;DHT22;66299;47.514;19.218;2024-01-07T03:22:43;6.50;99.99
68189;DHT22;66299;47.514;19.218;2024-01-07T03:25:14;6.46;99.99
68189;DHT22;66299;47.514;19.218;2024-01-07T03:27:43;6.48;99.99
68189;DHT22;66299;47.514;19.218;2024-01-07T03:30:13;6.49;99.99
68189;DHT22;66299;47.514;19.218;2024-01-07T03:32:43;6.52;99.99
68189;DHT22;66299;47.514;19.218;2024-01-07T03:35:11;6.53;99.99
68189;DHT22;66299;47.514;19.218;2024-01-07T03:37:40;6.50;99.99
68189;DHT22;66299;47.514;19.218;2024-01-07T03:40:10;6.55;99.99
68189;DHT22;66299;47.514;19.218;2024-01-07T03:42:41;6.55;99.99
68189;DHT22;66299;47.514;19.218;2024-01-07T03:45:09;6.57;99.99
68189;DHT22;66299;47.514;19.218;2024-01-07T03:47:40;6.62;99.99
68189;DHT22;66299;47.514;19.218;2024-01-07T03:50:10;6.59;99.99
68189;DHT22;66299;47.514;19.218;2024-01-07T03:52:39;6.57;99.99
68189;DHT22;66299;47.514;19.218;2024-01-07T03:55:08;6.62;99.99
68189;DHT22;66299;47.514;19.218;2024-01-07T03:57:37;6.66;99.99
68189;DHT22;66299;47.514;19.218;2024-01-07T04:00:08;6.68;99.99
68189;DHT22;66299;47.514;19.218;2024-01-07T04:02:40;6.64;99.99
68189;DHT22;66299;47.514;19.218;2024-01-07T04:05:10;6.65;99.99
68189;DHT22;66299;47.514;19.218;2024-01-07T04:07:40;6.62;99.99
68189;DHT22;66299;47.514;19.218;2024-01-07T04:10:09;6.66;99.99
68189;DHT22;66299;47.514;19.218;2024-01-07T04:12:38;6.66;99.99
68189;DHT22;66299;47.514;19.218;2024-01-07T04:15:11;6.73;99.99
68189;DHT22;66299;47.514;19.218;2024-01-07T04:17:41;6.71;99.99
68189;DHT22;66299;47.514;19.218;2024-01-07T04:20:13;6.71;99.99
68189;DHT22;66299;47.514;19.218;2024-01-07T04:22:41;6.76;99.99
68189;DHT22;66299;47.514;19.218;2024-01-07T04:25:10;6.76;99.99
68189;DHT22;66299;47.514;19.218;2024-01-07T04:27:38;6.77;99.99
68189;DHT22;66299;47.514;19.218;2024-01-07T04:30:07;6.75;99.99
68189;DHT22;66299;47.514;19.218;2024-01-07T04:32:36;6.79;99.99
68189;DHT22;66299;47.514;19.218;2024-01-07T04:35:07;6.85;99.99
68189;DHT22;66299;47.514;19.218;2024-01-07T04:37:38;6.75;99.99
68189;DHT22;66299;47.514;19.218;2024-01-07T04:40:09;6.75;99.99
68189;DHT22;66299;47.514;19.218;2024-01-07T04:42:38;6.75;99.99
68189;DHT22;66299;47.514;19.218;2024-01-07T04:45:08;6.80;99.99
68189;DHT22;66299;47.514;19.218;2024-01-07T04:47:37;6.62;99.99
68189;DHT22;66299;47.514;19.218;2024-01-07T04:50:08;6.52;99.99
68189;DHT22;66299;47.514;19.218;2024-01-07T04:52:38;6.44;99.99
68189;DHT22;66299;47.514;19.218;2024-01-07T04:55:09;6.45;99.99
68189;DHT22;66299;47.514;19.218;2024-01-07T04:57:38;6.36;99.99
68189;DHT22;66299;47.514;19.218;2024-01-07T05:00:08;6.36;99.99
68189;DHT22;66299;47.514;19.218;2024-01-07T05:02:37;6.34;99.99
68189;DHT22;66299;47.514;19.218;2024-01-07T05:05:09;6.31;99.99
68189;DHT22;66299;47.514;19.218;2024-01-07T05:07:38;6.31;99.99
68189;DHT22;66299;47.514;19.218;2024-01-07T05:10:08;6.29;99.99
68189;DHT22;66299;47.514;19.218;2024-01-07T05:12:38;6.31;99.99
68189;DHT22;66299;47.514;19.218;2024-01-07T05:15:07;6.29;99.99
68189;DHT22;66299;47.514;19.218;2024-01-07T05:17:36;6.32;99.99
68189;DHT22;66299;47.514;19.218;2024-01-07T05:20:10;6.35;99.99
68189;DHT22;66299;47.514;19.218;2024-01-07T05:22:40;6.35;99.99
68189;DHT22;66299;47.514;19.218;2024-01-07T05:25:11;6.32;99.99
68189;DHT22;66299;47.514;19.218;2024-01-07T05:27:41;6.32;99.99
68189;DHT22;66299;47.514;19.218;2024-01-07T05:30:10;6.31;99.99
68189;DHT22;66299;47.514;19.218;2024-01-07T05:32:41;6.28;99.99
68189;DHT22;66299;47.514;19.218;2024-01-07T05:35:11;6.28;99.99
68189;DHT22;66299;47.514;19.218;2024-01-07T05:37:39;6.29;99.99
68189;DHT22;66299;47.514;19.218;2024-01-07T05:40:09;6.27;99.99
68189;DHT22;66299;47.514;19.218;2024-01-07T05:42:38;6.25;99.99
68189;DHT22;66299;47.514;19.218;2024-01-07T05:45:07;6.22;99.99
68189;DHT22;66299;47.514;19.218;2024-01-07T05:47:37;6.24;99.99
68189;DHT22;66299;47.514;19.218;2024-01-07T05:50:06;6.24;99.99
68189;DHT22;66299;47.514;19.218;2024-01-07T05:52:37;6.24;99.99
68189;DHT22;66299;47.514;19.218;2024-01-07T05:55:07;6.22;99.99
68189;DHT22;66299;47.514;19.218;2024-01-07T05:57:36;6.21;99.99
68189;DHT22;66299;47.514;19.218;2024-01-07T06:00:06;6.22;99.99
68189;DHT22;66299;47.514;19.218;2024-01-07T06:02:35;6.22;99.99
68189;DHT22;66299;47.514;19.218;2024-01-07T06:05:06;6.20;99.99
68189;DHT22;66299;47.514;19.218;2024-01-07T06:07:37;6.21;99.99
68189;DHT22;66299;47.514;19.218;2024-01-07T06:10:07;6.24;99.99
68189;DHT22;66299;47.514;19.218;2024-01-07T06:12:36;6.29;99.99
68189;DHT22;66299;47.514;19.218;2024-01-07T06:15:06;6.25;99.99
68189;DHT22;66299;47.514;19.218;2024-01-07T06:17:35;6.24;99.99
68189;DHT22;66299;47.514;19.218;2024-01-07T06:20:05;6.28;99.99
68189;DHT22;66299;47.514;19.218;2024-01-07T06:22:38;6.25;99.99
68189;DHT22;66299;47.514;19.218;2024-01-07T06:25:07;6.29;99.99
68189;DHT22;66299;47.514;19.218;2024-01-07T06:27:38;6.27;99.99
68189;DHT22;66299;47.514;19.218;2024-01-07T06:30:07;6.27;99.99
68189;DHT22;66299;47.514;19.218;2024-01-07T06:32:37;6.29;99.99
68189;DHT22;66299;47.514;19.218;2024-01-07T06:35:07;6.28;99.99
68189;DHT22;66299;47.514;19.218;2024-01-07T06:37:38;6.27;99.99
68189;DHT22;66299;47.514;19.218;2024-01-07T06:40:08;6.27;99.99
68189;DHT22;66299;47.514;19.218;2024-01-07T06:42:39;6.27;99.99
68189;DHT22;66299;47.514;19.218;2024-01-07T06:45:09;6.28;99.99
68189;DHT22;66299;47.514;19.218;2024-01-07T06:47:38;6.29;99.99
68189;DHT22;66299;47.514;19.218;2024-01-07T06:50:07;6.28;99.99
68189;DHT22;66299;47.514;19.218;2024-01-07T06:52:38;6.27;99.99
68189;DHT22;66299;47.514;19.218;2024-01-07T06:55:09;6.27;99.99
68189;DHT22;66299;47.514;19.218;2024-01-07T06:57:39;6.31;99.99
68189;DHT22;66299;47.514;19.218;2024-01-07T07:00:09;6.27;99.99
68189;DHT22;66299;47.514;19.218;2024-01-07T07:02:38;6.27;99.99
68189;DHT22;66299;47.514;19.218;2024-01-07T07:05:07;6.29;99.99
68189;DHT22;66299;47.514;19.218;2024-01-07T07:07:38;6.31;99.99
68189;DHT22;66299;47.514;19.218;2024-01-07T07:10:08;6.29;99.99
68189;DHT22;66299;47.514;19.218;2024-01-07T07:12:37;6.28;99.99
68189;DHT22;66299;47.514;19.218;2024-01-07T07:15:07;6.32;99.99
68189;DHT22;66299;47.514;19.218;2024-01-07T07:17:38;6.32;99.99
68189;DHT22;66299;47.514;19.218;2024-01-07T07:20:08;6.34;99.99
68189;DHT22;66299;47.514;19.218;2024-01-07T07:22:38;6.32;99.99
68189;DHT22;66299;47.514;19.218;2024-01-07T07:25:08;6.32;99.99
68189;DHT22;66299;47.514;19.218;2024-01-07T07:27:37;6.36;99.99
68189;DHT22;66299;47.514;19.218;2024-01-07T07:30:07;6.38;99.99
68189;DHT22;66299;47.514;19.218;2024-01-07T07:32:39;6.34;99.99
68189;DHT22;66299;47.514;19.218;2024-01-07T07:35:08;6.35;99.99
68189;DHT22;66299;47.514;19.218;2024-01-07T07:37:39;6.41;99.99
68189;DHT22;66299;47.514;19.218;2024-01-07T07:40:07;6.35;99.99
68189;DHT22;66299;47.514;19.218;2024-01-07T07:42:36;6.38;99.99
68189;DHT22;66299;47.514;19.218;2024-01-07T07:45:06;6.38;99.99
68189;DHT22;66299;47.514;19.218;2024-01-07T07:47:36;6.38;99.99
68189;DHT22;66299;47.514;19.218;2024-01-07T07:50:07;6.44;99.99
68189;DHT22;66299;47.514;19.218;2024-01-07T07:52:40;6.42;99.99
68189;DHT22;66299;47.514;19.218;2024-01-07T07:55:11;6.42;99.99
68189;DHT22;66299;47.514;19.218;2024-01-07T07:57:41;6.38;99.99
68189;DHT22;66299;47.514;19.218;2024-01-07T08:00:11;6.44;99.99
68189;DHT22;66299;47.514;19.218;2024-01-07T08:02:41;6.45;99.99
68189;DHT22;66299;47.514;19.218;2024-01-07T08:05:10;6.42;99.99
68189;DHT22;66299;47.514;19.218;2024-01-07T08:07:40;6.42;99.99
68189;DHT22;66299;47.514;19.218;2024-01-07T08:10:09;6.44;99.99
68189;DHT22;66299;47.514;19.218;2024-01-07T08:12:37;6.45;99.99
68189;DHT22;66299;47.514;19.218;2024-01-07T08:15:07;6.50;99.99
68189;DHT22;66299;47.514;19.218;2024-01-07T08:17:36;6.49;99.99
68189;DHT22;66299;47.514;19.218;2024-01-07T08:20:07;6.46;99.99
68189;DHT22;66299;47.514;19.218;2024-01-07T08:22:36;6.50;99.99
68189;DHT22;66299;47.514;19.218;2024-01-07T08:25:07;6.46;99.99
68189;DHT22;66299;47.514;19.218;2024-01-07T08:27:37;6.50;99.99
68189;DHT22;66299;47.514;19.218;2024-01-07T08:30:07;6.52;99.99
68189;DHT22;66299;47.514;19.218;2024-01-07T08:32:36;6.57;99.99
68189;DHT22;66299;47.514;19.218;2024-01-07T08:35:07;6.55;99.99
68189;DHT22;66299;47.514;19.218;2024-01-07T08:37:36;6.56;99.99
68189;DHT22;66299;47.514;19.218;2024-01-07T08:40:07;6.56;99.99
68189;DHT22;66299;47.514;19.218;2024-01-07T08:42:37;6.64;99.99
68189;DHT22;66299;47.514;19.218;2024-01-07T08:45:07;6.65;99.99
68189;DHT22;66299;47.514;19.218;2024-01-07T08:47:35;6.66;99.99
68189;DHT22;66299;47.514;19.218;2024-01-07T08:50:09;6.69;99.99
68189;DHT22;66299;47.514;19.218;2024-01-07T08:52:39;6.71;99.99
68189;DHT22;66299;47.514;19.218;2024-01-07T08:55:09;6.69;99.99
68189;DHT22;66299;47.514;19.218;2024-01-07T08:57:39;6.75;99.99
68189;DHT22;66299;47.514;19.218;2024-01-07T09:00:09;6.75;99.99
68189;DHT22;66299;47.514;19.218;2024-01-07T09:02:38;6.76;99.99
68189;DHT22;66299;47.514;19.218;2024-01-07T09:05:11;6.77;99.99
68189;DHT22;66299;47.514;19.218;2024-01-07T09:07:41;6.77;99.99
68189;DHT22;66299;47.514;19.218;2024-01-07T09:10:11;6.82;99.99
68189;DHT22;66299;47.514;19.218;2024-01-07T09:12:41;6.79;99.99
68189;DHT22;66299;47.514;19.218;2024-01-07T09:15:09;6.85;99.99
68189;DHT22;66299;47.514;19.218;2024-01-07T09:17:38;6.85;99.99
68189;DHT22;66299;47.514;19.218;2024-01-07T09:20:08;6.85;99.99
68189;DHT22;66299;47.514;19.218;2024-01-07T09:22:39;6.83;99.99
68189;DHT22;66299;47.514;19.218;2024-01-07T09:25:11;6.94;99.99
68189;DHT22;66299;47.514;19.218;2024-01-07T09:27:42;6.90;99.99
68189;DHT22;66299;47.514;19.218;2024-01-07T09:30:12;6.90;99.99
68189;DHT22;66299;47.514;19.218;2024-01-07T09:32:42;6.89;99.99
68189;DHT22;66299;47.514;19.218;2024-01-07T09:35:12;6.86;99.99
68189;DHT22;66299;47.514;19.218;2024-01-07T09:37:42;6.90;99.99
68189;DHT22;66299;47.514;19.218;2024-01-07T09:40:17;6.86;99.99
68189;DHT22;66299;47.514;19.218;2024-01-07T09:42:48;6.90;99.99
68189;DHT22;66299;47.514;19.218;2024-01-07T09:45:19;6.86;99.99
68189;DHT22;66299;47.514;19.218;2024-01-07T09:47:50;6.86;99.99
68189;DHT22;66299;47.514;19.218;2024-01-07T09:50:19;6.79;99.99
68189;DHT22;66299;47.514;19.218;2024-01-07T09:52:48;6.82;99.99
68189;DHT22;66299;47.514;19.218;2024-01-07T09:55:25;6.77;99.99
68189;DHT22;66299;47.514;19.218;2024-01-07T09:57:55;6.77;99.99
68189;DHT22;66299;47.514;19.218;2024-01-07T10:00:25;6.76;99.99
68189;DHT22;66299;47.514;19.218;2024-01-07T10:02:54;6.77;99.99
68189;DHT22;66299;47.514;19.218;2024-01-07T10:05:24;6.72;99.99
68189;DHT22;66299;47.514;19.218;2024-01-07T10:07:53;6.73;99.99
68189;DHT22;66299;47.514;19.218;2024-01-07T10:10:25;6.72;99.99
68189;DHT22;66299;47.514;19.218;2024-01-07T10:12:54;6.77;99.99
68189;DHT22;66299;47.514;19.218;2024-01-07T10:15:25;6.72;99.99
68189;DHT22;66299;47.514;19.218;2024-01-07T10:17:55;6.69;99.99
68189;DHT22;66299;47.514;19.218;2024-01-07T10:20:24;6.66;99.99
68189;DHT22;66299;47.514;19.218;2024-01-07T10:22:52;6.66;99.99
68189;DHT22;66299;47.514;19.218;2024-01-07T10:25:21;6.68;99.99
68189;DHT22;66299;47.514;19.218;2024-01-07T10:27:51;6.66;99.99
68189;DHT22;66299;47.514;19.218;2024-01-07T10:30:21;6.62;99.99
68189;DHT22;66299;47.514;19.218;2024-01-07T10:32:55;6.65;99.99
68189;DHT22;66299;47.514;19.218;2024-01-07T10:35:27;6.65;99.99
68189;DHT22;66299;47.514;19.218;2024-01-07T10:37:57;6.62;99.99
68189;DHT22;66299;47.514;19.218;2024-01-07T10:40:28;6.66;99.99
68189;DHT22;66299;47.514;19.218;2024-01-07T10:42:59;6.64;99.99
68189;DHT22;66299;47.514;19.218;2024-01-07T10:45:28;6.61;99.99
68189;DHT22;66299;47.514;19.218;2024-01-07T10:47:59;6.57;99.99
68189;DHT22;66299;47.514;19.218;2024-01-07T10:50:30;6.57;99.99
68189;DHT22;66299;47.514;19.218;2024-01-07T10:53:04;6.57;99.99
68189;DHT22;66299;47.514;19.218;2024-01-07T10:55:36;6.56;99.99
68189;DHT22;66299;47.514;19.218;2024-01-07T10:58:08;6.56;99.99
68189;DHT22;66299;47.514;19.218;2024-01-07T11:00:37;6.55;99.99
68189;DHT22;66299;47.514;19.218;2024-01-07T11:03:11;6.52;99.99
68189;DHT22;66299;47.514;19.218;2024-01-07T11:05:48;6.48;99.99
68189;DHT22;66299;47.514;19.218;2024-01-07T11:08:21;6.46;99.99
68189;DHT22;66299;47.514;19.218;2024-01-07T11:10:57;6.46;99.99
68189;DHT22;66299;47.514;19.218;2024-01-07T11:13:36;6.49;99.99
68189;DHT22;66299;47.514;19.218;2024-01-07T11:16:06;6.44;99.99
68189;DHT22;66299;47.514;19.218;2024-01-07T11:18:39;6.52;99.99
68189;DHT22;66299;47.514;19.218;2024-01-07T11:21:08;6.48;99.99
68189;DHT22;66299;47.514;19.218;2024-01-07T11:23:43;6.38;99.99
68189;DHT22;66299;47.514;19.218;2024-01-07T11:26:13;6.39;99.99
68189;DHT22;66299;47.514;19.218;2024-01-07T11:28:45;6.41;99.99
68189;DHT22;66299;47.514;19.218;2024-01-07T11:31:14;6.42;99.99
68189;DHT22;66299;47.514;19.218;2024-01-07T11:33:45;6.39;99.99
68189;DHT22;66299;47.514;19.218;2024-01-07T11:36:16;6.36;99.99
68189;DHT22;66299;47.514;19.218;2024-01-07T11:38:48;6.32;99.99
68189;DHT22;66299;47.514;19.218;2024-01-07T11:41:21;6.38;99.99
68189;DHT22;66299;47.514;19.218;2024-01-07T11:43:58;6.34;99.99
68189;DHT22;66299;47.514;19.218;2024-01-07T11:46:33;6.34;99.99
68189;DHT22;66299;47.514;19.218;2024-01-07T11:49:03;6.31;99.99
68189;DHT22;66299;47.514;19.218;2024-01-07T11:51:32;6.27;99.99
68189;DHT22;66299;47.514;19.218;2024-01-07T11:54:05;6.24;99.99
68189;DHT22;66299;47.514;19.218;2024-01-07T11:56:34;6.25;99.99
68189;DHT22;66299;47.514;19.218;2024-01-07T11:59:06;6.21;99.99
68189;DHT22;66299;47.514;19.218;2024-01-07T12:01:36;6.18;99.99
68189;DHT22;66299;47.514;19.218;2024-01-07T12:04:05;6.13;99.99
68189;DHT22;66299;47.514;19.218;2024-01-07T12:06:35;6.13;99.99
68189;DHT22;66299;47.514;19.218;2024-01-07T12:09:03;6.13;99.99
68189;DHT22;66299;47.514;19.218;2024-01-07T12:11:34;6.13;99.99
68189;DHT22;66299;47.514;19.218;2024-01-07T12:14:06;6.14;99.99
68189;DHT22;66299;47.514;19.218;2024-01-07T12:16:41;6.17;99.99
68189;DHT22;66299;47.514;19.218;2024-01-07T12:19:10;6.16;99.99
68189;DHT22;66299;47.514;19.218;2024-01-07T12:21:39;6.13;99.99
68189;DHT22;66299;47.514;19.218;2024-01-07T12:24:11;6.10;99.99
68189;DHT22;66299;47.514;19.218;2024-01-07T12:26:41;6.08;99.99
68189;DHT22;66299;47.514;19.218;2024-01-07T12:29:12;6.08;99.99
68189;DHT22;66299;47.514;19.218;2024-01-07T12:31:43;6.07;99.99
68189;DHT22;66299;47.514;19.218;2024-01-07T12:34:14;6.08;99.99
68189;DHT22;66299;47.514;19.218;2024-01-07T12:36:43;6.08;99.99
68189;DHT22;66299;47.514;19.218;2024-01-07T12:39:14;6.03;99.99
68189;DHT22;66299;47.514;19.218;2024-01-07T12:41:45;6.07;99.99
68189;DHT22;66299;47.514;19.218;2024-01-07T12:44:18;6.00;99.99
68189;DHT22;66299;47.514;19.218;2024-01-07T12:46:46;5.97;99.99
68189;DHT22;66299;47.514;19.218;2024-01-07T12:49:18;5.97;99.99
68189;DHT22;66299;47.514;19.218;2024-01-07T12:51:49;5.94;99.99
68189;DHT22;66299;47.514;19.218;2024-01-07T12:54:20;5.90;99.99
68189;DHT22;66299;47.514;19.218;2024-01-07T12:56:50;5.90;99.99
68189;DHT22;66299;47.514;19.218;2024-01-07T12:59:20;5.89;99.99
68189;DHT22;66299;47.514;19.218;2024-01-07T13:01:49;5.86;99.99
68189;DHT22;66299;47.514;19.218;2024-01-07T13:04:20;5.91;99.99
68189;DHT22;66299;47.514;19.218;2024-01-07T13:06:49;5.90;99.99
68189;DHT22;66299;47.514;19.218;2024-01-07T13:09:20;5.91;99.99
68189;DHT22;66299;47.514;19.218;2024-01-07T13:11:49;5.91;99.99
68189;DHT22;66299;47.514;19.218;2024-01-07T13:14:20;5.93;99.99
68189;DHT22;66299;47.514;19.218;2024-01-07T13:16:49;5.93;99.99
68189;DHT22;66299;47.514;19.218;2024-01-07T13:19:17;5.91;99.99
68189;DHT22;66299;47.514;19.218;2024-01-07T13:21:47;5.89;99.99
68189;DHT22;66299;47.514;19.218;2024-01-07T13:24:16;5.89;99.99
68189;DHT22;66299;47.514;19.218;2024-01-07T13:26:45;5.89;99.99
68189;DHT22;66299;47.514;19.218;2024-01-07T13:29:14;5.89;99.99
68189;DHT22;66299;47.514;19.218;2024-01-07T13:31:45;5.93;99.99
68189;DHT22;66299;47.514;19.218;2024-01-07T13:34:15;5.89;99.99
68189;DHT22;66299;47.514;19.218;2024-01-07T13:36:45;5.85;99.99
68189;DHT22;66299;47.514;19.218;2024-01-07T13:39:14;5.85;99.99
68189;DHT22;66299;47.514;19.218;2024-01-07T13:41:45;5.81;99.99
68189;DHT22;66299;47.514;19.218;2024-01-07T13:44:18;5.83;99.99
68189;DHT22;66299;47.514;19.218;2024-01-07T13:46:48;5.85;99.99
68189;DHT22;66299;47.514;19.218;2024-01-07T13:49:19;5.83;99.99
68189;DHT22;66299;47.514;19.218;2024-01-07T13:51:48;5.85;99.99
68189;DHT22;66299;47.514;19.218;2024-01-07T13:54:16;5.79;99.99
68189;DHT22;66299;47.514;19.218;2024-01-07T13:56:45;5.77;99.99
68189;DHT22;66299;47.514;19.218;2024-01-07T13:59:13;5.74;99.99
68189;DHT22;66299;47.514;19.218;2024-01-07T14:01:44;5.77;99.99
68189;DHT22;66299;47.514;19.218;2024-01-07T14:04:15;5.69;99.99
68189;DHT22;66299;47.514;19.218;2024-01-07T14:06:45;5.66;99.99
68189;DHT22;66299;47.514;19.218;2024-01-07T14:09:16;5.52;99.99
68189;DHT22;66299;47.514;19.218;2024-01-07T14:11:44;5.43;99.99
68189;DHT22;66299;47.514;19.218;2024-01-07T14:14:13;5.35;99.99
68189;DHT22;66299;47.514;19.218;2024-01-07T14:16:42;5.31;99.99
68189;DHT22;66299;47.514;19.218;2024-01-07T14:19:12;5.14;99.99
68189;DHT22;66299;47.514;19.218;2024-01-07T14:21:43;5.07;99.99
68189;DHT22;66299;47.514;19.218;2024-01-07T14:24:12;5.08;99.99
68189;DHT22;66299;47.514;19.218;2024-01-07T14:26:41;5.22;99.99
68189;DHT22;66299;47.514;19.218;2024-01-07T14:29:12;5.14;99.99
68189;DHT22;66299;47.514;19.218;2024-01-07T14:31:44;4.85;99.99
68189;DHT22;66299;47.514;19.218;2024-01-07T14:34:13;4.66;99.99
68189;DHT22;66299;47.514;19.218;2024-01-07T14:36:44;4.50;99.99
68189;DHT22;66299;47.514;19.218;2024-01-07T14:39:14;4.22;99.99
68189;DHT22;66299;47.514;19.218;2024-01-07T14:41:42;4.16;99.99
68189;DHT22;66299;47.514;19.218;2024-01-07T14:44:11;4.09;99.99
68189;DHT22;66299;47.514;19.218;2024-01-07T14:46:42;4.05;99.99
68189;DHT22;66299;47.514;19.218;2024-01-07T14:49:11;3.93;99.99
68189;DHT22;66299;47.514;19.218;2024-01-07T14:51:41;3.94;99.99
68189;DHT22;66299;47.514;19.218;2024-01-07T14:54:12;3.81;99.99
68189;DHT22;66299;47.514;19.218;2024-01-07T14:56:42;3.78;99.99
68189;DHT22;66299;47.514;19.218;2024-01-07T14:59:10;3.69;99.99
68189;DHT22;66299;47.514;19.218;2024-01-07T15:01:39;3.66;99.99
68189;DHT22;66299;47.514;19.218;2024-01-07T15:04:12;3.57;99.99
68189;DHT22;66299;47.514;19.218;2024-01-07T15:06:41;3.52;99.99
68189;DHT22;66299;47.514;19.218;2024-01-07T15:09:09;3.49;99.99
68189;DHT22;66299;47.514;19.218;2024-01-07T15:11:42;3.50;99.99
68189;DHT22;66299;47.514;19.218;2024-01-07T15:14:16;3.44;99.99
68189;DHT22;66299;47.514;19.218;2024-01-07T15:16:45;3.42;99.99
68189;DHT22;66299;47.514;19.218;2024-01-07T15:19:23;3.44;99.99
68189;DHT22;66299;47.514;19.218;2024-01-07T15:21:53;3.36;99.99
68189;DHT22;66299;47.514;19.218;2024-01-07T15:24:22;3.23;99.99
68189;DHT22;66299;47.514;19.218;2024-01-07T15:26:53;3.19;99.99
68189;DHT22;66299;47.514;19.218;2024-01-07T15:29:22;3.16;99.99
68189;DHT22;66299;47.514;19.218;2024-01-07T15:31:50;3.16;99.99
68189;DHT22;66299;47.514;19.218;2024-01-07T15:34:19;3.15;99.99
68189;DHT22;66299;47.514;19.218;2024-01-07T15:36:48;3.12;99.99
68189;DHT22;66299;47.514;19.218;2024-01-07T15:39:17;3.15;99.99
68189;DHT22;66299;47.514;19.218;2024-01-07T15:41:46;3.08;99.99
68189;DHT22;66299;47.514;19.218;2024-01-07T15:44:16;3.06;99.99
68189;DHT22;66299;47.514;19.218;2024-01-07T15:46:47;3.01;99.99